Time;durP1;ratioP1;P1;durP2;ratioP2;P2;SDS_P1;SDS_P2;PMS_P1;PMS_P2;Temp;Humidity;BMP_temperature;BMP_pressure;BME280_temperature;BME280_humidity;BME280_pressure;Samples;Min_cycle;Max_cycle;Signal;HPM_P1;HPM_P2
2021/08/28 00:01:50;;;;;;;3.80;2.62;;;;;;;15.42;59.68;99804.56;4375935;32;33820;-84
2021/08/28 00:04:18;;;;;;;4.35;2.90;;;;;;;15.59;59.24;99806.88;4352652;32;34622;-85
2021/08/28 00:06:46;;;;;;;3.75;2.90;;;;;;;15.54;59.18;99812.22;4353031;32;33620;-86
2021/08/28 00:09:13;;;;;;;3.58;2.83;;;;;;;15.65;59.14;99805.84;4365902;32;33735;-85
2021/08/28 00:11:41;;;;;;;5.18;3.22;;;;;;;15.64;59.14;99806.78;4350330;32;33218;-85
2021/08/28 00:14:08;;;;;;;3.28;2.65;;;;;;;15.62;59.19;99809.41;4350190;32;34719;-86
2021/08/28 00:16:36;;;;;;;4.35;3.10;;;;;;;15.70;59.04;99809.25;4350288;32;34232;-85
2021/08/28 00:19:04;;;;;;;3.62;2.90;;;;;;;15.67;59.11;99811.94;4350304;32;34456;-86
2021/08/28 00:21:34;;;;;;;4.20;3.08;;;;;;;15.79;58.92;99816.94;4362454;32;33877;-86
2021/08/28 00:24:02;;;;;;;3.72;2.90;;;;;;;15.75;58.89;99817.91;4362496;32;33904;-86
2021/08/28 00:26:30;;;;;;;4.43;2.90;;;;;;;15.94;58.37;99827.09;4362352;32;34910;-86
2021/08/28 00:28:57;;;;;;;4.45;2.90;;;;;;;15.81;58.53;99815.16;4362251;32;33434;-86
2021/08/28 00:31:25;;;;;;;3.00;2.67;;;;;;;15.98;58.12;99827.00;4350111;32;34802;-86
2021/08/28 00:33:52;;;;;;;3.90;2.78;;;;;;;15.93;58.21;99823.59;4363342;32;34587;-85
2021/08/28 00:36:21;;;;;;;4.32;3.10;;;;;;;15.98;57.94;99823.50;4374451;32;34099;-85
2021/08/28 00:38:48;;;;;;;3.95;2.72;;;;;;;15.83;58.27;99823.84;4337740;32;33695;-86
2021/08/28 00:41:16;;;;;;;6.20;2.80;;;;;;;15.74;58.50;99822.28;4337455;32;33493;-85
2021/08/28 00:43:44;;;;;;;3.90;2.67;;;;;;;15.72;58.40;99825.81;4349959;32;34373;-86
2021/08/28 00:46:11;;;;;;;2.97;2.67;;;;;;;15.75;57.82;99831.88;4374786;32;33408;-86
2021/08/28 00:48:39;;;;;;;4.28;2.80;;;;;;;15.78;57.62;99823.09;4349640;32;33458;-86
2021/08/28 00:51:09;;;;;;;8.57;2.65;;;;;;;15.82;57.60;99827.34;4349305;32;33718;-86
2021/08/28 00:53:36;;;;;;;4.03;2.67;;;;;;;15.80;57.31;99826.53;4349868;32;33871;-86
2021/08/28 00:56:04;;;;;;;5.50;2.80;;;;;;;15.69;57.64;99823.28;4349913;32;34878;-86
2021/08/28 00:58:32;;;;;;;3.78;2.67;;;;;;;15.66;58.07;99828.56;4361995;32;34309;-85
2021/08/28 01:01:10;;;;;;;2.90;2.60;;;;;;;15.66;57.72;99826.81;4349930;32;34814;-85
2021/08/28 01:03:42;;;;;;;4.40;2.80;;;;;;;15.57;58.02;99822.59;4362112;32;33971;-85
2021/08/28 01:06:14;;;;;;;8.50;3.45;;;;;;;15.48;58.21;99811.44;4349906;32;34185;-85
2021/08/28 01:08:54;;;;;;;7.25;2.92;;;;;;;15.50;58.17;99815.75;4362119;32;33781;-85
2021/08/28 01:11:32;;;;;;;3.15;2.65;;;;;;;15.35;58.49;99813.44;4350165;32;34389;-86
2021/08/28 01:14:06;;;;;;;4.70;2.95;;;;;;;15.35;58.51;99807.31;4349846;32;34094;-86
2021/08/28 01:16:45;;;;;;;3.97;2.78;;;;;;;15.27;58.75;99812.69;4362223;32;34898;-86
2021/08/28 01:19:28;;;;;;;3.00;2.75;;;;;;;15.21;58.86;99812.84;4349993;32;34211;-86
2021/08/28 01:21:57;;;;;;;4.93;3.17;;;;;;;15.21;58.81;99815.44;4349330;32;32963;-86
2021/08/28 01:24:26;;;;;;;3.10;2.67;;;;;;;15.16;59.05;99813.78;4349629;32;35502;-86
2021/08/28 01:27:15;;;;;;;2.95;2.65;;;;;;;15.13;58.97;99813.84;4349333;32;34016;-86
2021/08/28 01:29:44;;;;;;;4.00;2.60;;;;;;;14.95;59.41;99812.44;4361904;32;33822;-85
2021/08/28 01:32:14;;;;;;;2.67;2.47;;;;;;;15.03;59.21;99812.28;4337958;32;33836;-85
2021/08/28 01:34:43;;;;;;;5.30;2.78;;;;;;;15.01;59.26;99814.94;4349379;32;33918;-85
2021/08/28 01:37:18;;;;;;;5.18;3.17;;;;;;;15.10;59.24;99817.37;4337415;32;34947;-85
2021/08/28 01:39:47;;;;;;;4.15;2.80;;;;;;;14.99;59.37;99819.34;4349704;32;33388;-85
2021/08/28 01:42:16;;;;;;;4.12;2.83;;;;;;;15.04;59.14;99824.50;4349264;32;33893;-85
2021/08/28 01:44:46;;;;;;;4.15;2.90;;;;;;;15.07;58.99;99820.03;4349383;32;34118;-85
2021/08/28 01:47:15;;;;;;;3.85;2.70;;;;;;;15.01;58.87;99814.06;4373505;32;33583;-85
2021/08/28 01:49:45;;;;;;;3.37;2.28;;;;;;;14.97;59.02;99808.03;4349345;32;34326;-85
2021/08/28 01:52:16;;;;;;;3.62;3.05;;;;;;;14.89;59.15;99807.28;4348894;32;34760;-85
2021/08/28 01:54:44;;;;;;;3.00;2.70;;;;;;;14.91;59.14;99813.34;4349197;32;35410;-85
2021/08/28 01:57:12;;;;;;;4.00;2.47;;;;;;;14.81;59.25;99807.41;4349238;32;34164;-85
2021/08/28 01:59:40;;;;;;;2.62;2.42;;;;;;;14.84;59.32;99806.50;4362576;32;33468;-85
2021/08/28 02:02:09;;;;;;;3.72;2.17;;;;;;;14.82;59.39;99810.91;4374360;32;34910;-85
2021/08/28 02:04:39;;;;;;;3.95;2.42;;;;;;;14.67;59.75;99812.03;4351616;32;34939;-85
2021/08/28 02:07:42;;;;;;;3.22;2.70;;;;;;;14.80;59.25;99805.72;4351122;32;33834;-85
2021/08/28 02:10:19;;;;;;;3.70;2.60;;;;;;;14.71;59.46;99805.84;4358681;32;32827;-85
2021/08/28 02:13:09;;;;;;;3.62;2.58;;;;;;;14.73;59.35;99803.22;4364817;32;33970;-85
2021/08/28 02:15:41;;;;;;;3.37;2.87;;;;;;;14.70;59.40;99805.88;4363303;32;34799;-85
2021/08/28 02:18:16;;;;;;;4.37;2.92;;;;;;;14.66;59.78;99807.69;4351468;32;34195;-85
2021/08/28 02:20:49;;;;;;;6.12;2.78;;;;;;;14.67;59.68;99808.53;4364897;32;33460;-85
2021/08/28 02:23:24;;;;;;;3.33;2.53;;;;;;;14.73;59.47;99803.22;4351122;32;33473;-85
2021/08/28 02:26:03;;;;;;;3.58;2.50;;;;;;;14.79;59.31;99798.72;4351114;32;33889;-84
2021/08/28 02:29:01;;;;;;;3.53;2.60;;;;;;;14.71;59.51;99795.37;4351368;32;34189;-85
2021/08/28 02:31:37;;;;;;;2.78;2.47;;;;;;;14.59;59.82;99798.22;4350525;32;33742;-85
2021/08/28 02:34:07;;;;;;;2.87;2.50;;;;;;;14.71;59.54;99794.53;4338867;32;34148;-85
2021/08/28 02:36:38;;;;;;;4.53;2.47;;;;;;;14.61;59.65;99791.19;4375373;32;34983;-85
2021/08/28 02:39:10;;;;;;;2.62;2.03;;;;;;;14.61;59.46;99788.59;4363333;32;34333;-85
2021/08/28 02:41:41;;;;;;;2.50;2.30;;;;;;;14.73;59.20;99792.75;4351121;32;32993;-85
2021/08/28 02:44:09;;;;;;;2.80;2.42;;;;;;;14.71;59.14;99791.91;4363120;32;34278;-85
2021/08/28 02:46:37;;;;;;;3.67;2.28;;;;;;;14.61;59.41;99792.94;4363568;32;34116;-85
2021/08/28 02:49:06;;;;;;;3.05;2.30;;;;;;;14.62;59.22;99790.28;4338700;32;33579;-84
2021/08/28 02:51:35;;;;;;;3.80;2.30;;;;;;;14.65;58.91;99792.00;4375445;32;32572;-85
2021/08/28 02:54:04;;;;;;;2.78;2.17;;;;;;;14.44;59.65;99785.38;4351059;32;34714;-84
2021/08/28 02:56:32;;;;;;;3.80;2.67;;;;;;;14.53;59.83;99795.69;4351202;32;35523;-85
2021/08/28 02:59:00;;;;;;;4.97;2.40;;;;;;;14.50;59.58;99794.87;4351244;32;34675;-85
2021/08/28 03:01:29;;;;;;;4.80;2.62;;;;;;;14.45;59.63;99788.84;4363193;32;33374;-84
2021/08/28 03:03:58;;;;;;;4.53;3.05;;;;;;;14.39;59.85;99786.31;4350915;32;34006;-85
2021/08/28 03:06:28;;;;;;;4.30;2.80;;;;;;;14.50;59.75;99772.16;4351003;32;35443;-85
2021/08/28 03:08:56;;;;;;;4.28;2.30;;;;;;;14.45;60.00;99783.62;4350929;32;34229;-85
2021/08/28 03:11:24;;;;;;;4.65;2.58;;;;;;;14.43;59.68;99780.16;4351164;32;33608;-85
2021/08/28 03:13:53;;;;;;;5.03;2.72;;;;;;;14.35;59.96;99782.91;4362705;32;33700;-85
2021/08/28 03:16:25;;;;;;;3.75;2.20;;;;;;;14.47;59.85;99772.25;4375295;32;35589;-85
2021/08/28 03:18:56;;;;;;;5.32;2.55;;;;;;;14.58;59.32;99782.50;4350909;32;34940;-85
2021/08/28 03:21:26;;;;;;;5.90;2.67;;;;;;;14.37;59.94;99783.72;4364538;32;33220;-85
2021/08/28 03:23:56;;;;;;;3.17;1.90;;;;;;;14.37;60.06;99782.88;4350746;32;33630;-84
2021/08/28 03:26:45;;;;;;;4.37;2.37;;;;;;;14.19;60.52;99784.84;4363294;32;34601;-84
2021/08/28 03:29:14;;;;;;;5.07;2.50;;;;;;;14.33;60.20;99778.56;4362750;32;34258;-85
2021/08/28 03:31:41;;;;;;;5.40;2.47;;;;;;;14.43;59.88;99785.41;4350805;32;33400;-84
2021/08/28 03:34:09;;;;;;;4.25;2.55;;;;;;;14.34;60.21;99782.91;4350781;32;34078;-84
2021/08/28 03:36:38;;;;;;;4.32;3.00;;;;;;;14.26;60.73;99783.84;4338798;32;35200;-85
2021/08/28 03:39:06;;;;;;;3.05;2.05;;;;;;;14.39;60.23;99787.19;4338486;32;34392;-84
2021/08/28 03:41:33;;;;;;;2.75;2.47;;;;;;;14.32;60.45;99782.06;4347713;33;33415;-85
2021/08/28 03:44:01;;;;;;;4.68;2.40;;;;;;;14.42;59.84;99784.53;4348077;32;33074;-85
2021/08/28 03:46:31;;;;;;;4.57;2.50;;;;;;;14.61;59.29;99782.47;4335596;33;34114;-85
2021/08/28 03:49:00;;;;;;;4.82;2.30;;;;;;;14.42;59.69;99791.50;4360190;32;34439;-85
2021/08/28 03:51:27;;;;;;;2.62;2.15;;;;;;;14.31;59.92;99783.81;4349257;33;33620;-84
2021/08/28 03:53:55;;;;;;;3.75;2.30;;;;;;;14.30;59.77;99786.44;4347872;33;33837;-84
2021/08/28 03:56:22;;;;;;;4.37;2.10;;;;;;;14.29;60.02;99785.56;4348156;33;35585;-84
2021/08/28 03:58:50;;;;;;;2.62;2.03;;;;;;;14.44;59.37;99781.88;4360232;32;33994;-85
2021/08/28 04:01:18;;;;;;;4.25;2.22;;;;;;;14.32;59.53;99788.16;4347644;33;33283;-84
2021/08/28 04:03:46;;;;;;;2.95;2.10;;;;;;;14.41;59.56;99795.87;4348107;33;33778;-84
2021/08/28 04:06:14;;;;;;;3.30;2.10;;;;;;;14.35;60.04;99795.13;4348052;33;34618;-84
2021/08/28 04:08:46;;;;;;;4.22;2.47;;;;;;;14.42;59.72;99796.75;4360034;32;34242;-84
2021/08/28 04:11:14;;;;;;;3.37;2.67;;;;;;;14.43;60.22;99788.03;4360012;32;33474;-84
2021/08/28 04:13:42;;;;;;;3.30;2.53;;;;;;;14.35;60.59;99795.13;4360101;32;33996;-84
2021/08/28 04:16:10;;;;;;;3.95;2.50;;;;;;;14.40;60.56;99794.16;4335845;33;34576;-84
2021/08/28 04:18:38;;;;;;;3.92;2.53;;;;;;;14.44;60.54;99795.84;4348946;33;34256;-85
2021/08/28 04:21:09;;;;;;;4.80;2.78;;;;;;;14.55;60.36;99782.56;4336211;33;33454;-84
2021/08/28 04:23:37;;;;;;;3.22;2.87;;;;;;;14.56;60.30;99797.38;4338716;32;93584;-85
2021/08/28 04:26:11;;;;;;;5.85;2.50;;;;;;;14.26;61.69;99807.41;4338577;33;35489;-84
2021/08/28 04:28:39;;;;;;;4.65;3.10;;;;;;;14.02;62.93;99815.63;4335427;33;33579;-85
2021/08/28 04:31:07;;;;;;;4.28;2.65;;;;;;;14.53;61.86;99805.28;4347722;32;33812;-85
2021/08/28 04:33:35;;;;;;;3.10;2.72;;;;;;;14.56;61.59;99806.09;4360016;32;33911;-85
2021/08/28 04:36:03;;;;;;;8.65;2.75;;;;;;;14.50;61.82;99803.56;4348857;33;34731;-84
2021/08/28 04:38:31;;;;;;;5.00;2.55;;;;;;;14.66;61.05;99794.59;4348577;33;34234;-84
2021/08/28 04:40:59;;;;;;;3.45;2.35;;;;;;;14.68;60.86;99802.41;4350321;32;32911;-85
2021/08/28 04:43:27;;;;;;;3.55;2.42;;;;;;;14.81;60.58;99796.06;4350189;32;33555;-85
2021/08/28 04:45:55;;;;;;;4.25;3.00;;;;;;;14.97;60.30;99802.78;4337870;32;35170;-84
2021/08/28 04:48:23;;;;;;;4.18;2.70;;;;;;;14.82;61.06;99805.66;4362346;32;34204;-85
2021/08/28 04:50:52;;;;;;;3.28;2.53;;;;;;;14.80;61.30;99804.84;4362396;32;34325;-84
2021/08/28 04:53:21;;;;;;;3.90;3.20;;;;;;;15.04;61.13;99814.88;4349890;32;34214;-85
2021/08/28 04:55:48;;;;;;;4.18;3.15;;;;;;;15.07;61.18;99812.19;4363039;32;34615;-85
2021/08/28 04:58:16;;;;;;;4.72;3.42;;;;;;;15.14;61.08;99813.81;4337694;32;34439;-85
2021/08/28 05:00:45;;;;;;;6.07;3.30;;;;;;;15.18;61.22;99809.38;4363154;32;33666;-85
2021/08/28 05:03:14;;;;;;;6.62;3.15;;;;;;;15.11;61.46;99819.13;4363487;32;34772;-85
2021/08/28 05:05:42;;;;;;;4.93;3.62;;;;;;;15.45;60.56;99822.84;4373977;32;35575;-84
2021/08/28 05:08:10;;;;;;;4.72;3.60;;;;;;;15.44;61.02;99830.72;4374398;32;34984;-85
2021/08/28 05:10:38;;;;;;;5.87;3.42;;;;;;;15.47;61.01;99825.47;4349825;32;33482;-85
2021/08/28 05:13:05;;;;;;;6.95;3.17;;;;;;;15.47;61.09;99823.72;4362072;32;33948;-85
2021/08/28 05:15:33;;;;;;;4.53;3.03;;;;;;;15.53;61.25;99834.06;4362852;32;35340;-85
2021/08/28 05:18:04;;;;;;;4.80;3.03;;;;;;;15.70;60.82;99838.97;4349617;32;34183;-85
2021/08/28 05:20:33;;;;;;;4.47;3.12;;;;;;;15.84;60.58;99839.53;4349692;32;34143;-85
2021/08/28 05:23:02;;;;;;;3.90;3.03;;;;;;;15.95;60.35;99842.78;4349899;32;33078;-85
2021/08/28 05:25:32;;;;;;;3.65;2.83;;;;;;;15.97;60.77;99846.28;4362628;32;35399;-85
2021/08/28 05:28:00;;;;;;;4.53;3.05;;;;;;;16.03;61.12;99843.50;4362749;32;34238;-85
2021/08/28 05:30:28;;;;;;;4.97;3.12;;;;;;;16.04;61.54;99844.38;4349367;32;34877;-85
2021/08/28 05:32:56;;;;;;;3.78;2.87;;;;;;;16.19;61.03;99849.28;4349537;32;34692;-85
2021/08/28 05:35:24;;;;;;;5.05;2.87;;;;;;;16.32;61.21;99839.38;4349746;32;34598;-85
2021/08/28 05:37:54;;;;;;;2.95;2.70;;;;;;;16.36;61.38;99836.62;4352048;32;33460;-85
2021/08/28 05:40:21;;;;;;;3.75;2.78;;;;;;;16.46;61.38;99838.16;4351590;32;34235;-85
2021/08/28 05:42:49;;;;;;;6.07;3.78;;;;;;;16.49;61.41;99835.47;4351253;32;34075;-85
2021/08/28 05:45:17;;;;;;;5.50;2.85;;;;;;;16.65;61.15;99834.25;4351320;32;34700;-85
2021/08/28 05:47:44;;;;;;;8.32;3.10;;;;;;;16.58;61.74;99827.41;4351224;32;34929;-85
2021/08/28 05:50:13;;;;;;;3.97;2.97;;;;;;;16.70;61.52;99839.38;4363362;32;34272;-85
2021/08/28 05:52:40;;;;;;;5.05;3.28;;;;;;;16.75;61.71;99830.50;4363202;32;33651;-85
2021/08/28 05:55:10;;;;;;;7.43;3.25;;;;;;;16.88;61.44;99828.41;4351306;32;34225;-85
2021/08/28 05:57:38;;;;;;;3.42;3.00;;;;;;;16.96;61.35;99834.34;4351430;32;33520;-85
2021/08/28 06:00:07;;;;;;;3.90;2.80;;;;;;;17.13;60.46;99831.28;4351086;32;34763;-85
2021/08/28 06:02:41;;;;;;;6.10;3.12;;;;;;;17.22;59.94;99831.03;4375191;32;34100;-85
2021/08/28 06:05:12;;;;;;;5.80;2.33;;;;;;;17.25;59.41;99831.81;4339405;32;34882;-85
2021/08/28 06:07:42;;;;;;;2.30;1.92;;;;;;;17.33;59.17;99834.25;4375360;32;34250;-85
2021/08/28 06:10:12;;;;;;;3.80;2.22;;;;;;;17.41;58.92;99833.13;4363268;32;33849;-85
2021/08/28 06:12:41;;;;;;;4.80;2.30;;;;;;;17.50;58.77;99837.25;4364682;32;33921;-85
2021/08/28 06:15:10;;;;;;;2.87;2.25;;;;;;;17.58;58.92;99835.31;4351381;32;33937;-85
2021/08/28 06:17:38;;;;;;;3.70;2.10;;;;;;;17.66;57.96;99828.09;4365350;32;34017;-84
2021/08/28 06:20:06;;;;;;;4.07;1.77;;;;;;;17.85;56.36;99829.25;4366385;32;34012;-84
2021/08/28 06:22:34;;;;;;;4.10;1.80;;;;;;;17.74;56.69;99827.84;4354007;32;34171;-90
2021/08/28 06:25:03;;;;;;;2.33;2.00;;;;;;;17.98;56.79;99835.03;4365913;32;34851;-91
2021/08/28 06:27:30;;;;;;;4.87;2.10;;;;;;;18.01;56.75;99830.56;4353259;32;33628;-91
2021/08/28 06:29:58;;;;;;;5.47;1.77;;;;;;;18.29;56.02;99830.56;4354454;32;34323;-92
2021/08/28 06:32:27;;;;;;;3.05;1.90;;;;;;;18.58;55.41;99822.66;4354737;32;34663;-90
2021/08/28 06:34:55;;;;;;;2.47;1.90;;;;;;;18.73;54.32;99818.66;4339110;32;33830;-93
2021/08/28 06:37:23;;;;;;;1.77;1.42;;;;;;;18.69;54.92;99827.56;4351369;32;33603;-93
2021/08/28 06:39:56;;;;;;;3.15;1.40;;;;;;;18.75;53.81;99808.94;4352005;32;32731;-93
2021/08/28 06:42:26;;;;;;;1.90;1.70;;;;;;;18.77;53.39;99812.38;4351600;32;33057;-93
2021/08/28 06:45:04;;;;;;;3.42;1.62;;;;;;;18.49;54.94;99827.34;4352115;32;34892;-93
2021/08/28 06:47:34;;;;;;;2.45;1.55;;;;;;;18.70;54.03;99818.75;4350426;32;32761;-92
2021/08/28 06:50:05;;;;;;;2.42;1.42;;;;;;;18.78;54.23;99825.50;4351970;32;32841;-93
2021/08/28 06:52:43;;;;;;;2.35;1.20;;;;;;;18.62;54.50;99823.41;4351296;32;32856;-93
2021/08/28 06:55:25;;;;;;;2.03;1.42;;;;;;;18.65;54.90;99823.31;4350975;32;34712;-92
2021/08/28 06:57:58;;;;;;;2.00;1.40;;;;;;;18.64;54.59;99814.53;4363294;32;33726;-93
2021/08/28 07:00:26;;;;;;;2.50;1.33;;;;;;;18.84;54.38;99816.53;4351087;32;33744;-93
2021/08/28 07:02:59;;;;;;;2.83;1.30;;;;;;;18.89;53.70;99819.88;4351886;32;33916;-93
2021/08/28 07:05:28;;;;;;;2.33;1.55;;;;;;;18.91;53.65;99813.66;4350912;32;33938;-93
2021/08/28 07:07:56;;;;;;;3.92;1.50;;;;;;;19.08;53.69;99817.47;4351296;32;34967;-93
2021/08/28 07:10:24;;;;;;;2.67;1.30;;;;;;;19.03;53.97;99809.72;4350810;32;32946;-93
2021/08/28 07:12:53;;;;;;;3.85;1.40;;;;;;;19.21;53.60;99809.06;4351343;32;34741;-93
2021/08/28 07:15:20;;;;;;;2.20;1.35;;;;;;;19.17;53.26;99815.38;4350883;32;35408;-93
2021/08/28 07:17:48;;;;;;;3.00;1.83;;;;;;;19.21;53.91;99813.47;4363559;32;33775;-93
2021/08/28 07:20:16;;;;;;;1.50;1.30;;;;;;;19.27;53.34;99806.25;4350948;32;34139;-94
2021/08/28 07:22:45;;;;;;;4.43;1.75;;;;;;;19.33;53.15;99810.41;4351078;32;34753;-90
2021/08/28 07:25:14;;;;;;;2.47;1.33;;;;;;;19.46;52.70;99812.63;4363446;32;33862;-90
2021/08/28 07:27:43;;;;;;;2.78;1.60;;;;;;;19.45;53.18;99810.87;4363242;32;34513;-93
2021/08/28 07:30:13;;;;;;;2.65;1.77;;;;;;;19.69;52.99;99802.97;4350984;32;32701;-92
2021/08/28 07:32:41;;;;;;;1.30;1.20;;;;;;;19.62;53.47;99810.28;4338302;32;34165;-91
2021/08/28 07:35:10;;;;;;;3.92;1.55;;;;;;;19.95;53.08;99803.72;4363585;32;34813;-92
2021/08/28 07:37:37;;;;;;;2.08;1.45;;;;;;;19.68;52.28;99798.66;4363036;32;33586;-90
2021/08/28 07:40:06;;;;;;;1.65;1.30;;;;;;;19.86;51.87;99811.13;4363077;32;32937;-90
2021/08/28 07:42:54;;;;;;;1.70;1.00;;;;;;;20.07;51.06;99807.69;4339953;32;34388;-95
2021/08/28 07:45:23;;;;;;;1.65;1.25;;;;;;;20.27;49.51;99810.47;4338665;32;34063;-90
2021/08/28 07:47:55;;;;;;;1.67;1.33;;;;;;;20.00;50.68;99812.34;4350885;32;34061;-93
2021/08/28 07:50:23;;;;;;;3.22;1.55;;;;;;;20.07;51.32;99807.69;4350353;32;33863;-89
2021/08/28 07:52:51;;;;;;;2.08;1.17;;;;;;;20.08;50.81;99810.28;4362965;32;33269;-89
2021/08/28 07:55:19;;;;;;;4.75;1.10;;;;;;;20.44;50.46;99809.78;4338566;32;34217;-88
2021/08/28 07:57:46;;;;;;;3.00;1.20;;;;;;;20.51;49.92;99808.63;4338255;32;33474;-89
2021/08/28 08:00:14;;;;;;;1.67;1.10;;;;;;;20.59;49.19;99807.38;4349069;32;32804;-90
2021/08/28 08:02:43;;;;;;;1.75;1.12;;;;;;;20.55;48.53;99800.50;4350472;32;32946;-89
2021/08/28 08:05:12;;;;;;;2.53;1.15;;;;;;;20.52;49.52;99800.63;4350898;32;34291;-90
2021/08/28 08:07:42;;;;;;;7.18;1.30;;;;;;;20.56;49.50;99802.19;4350445;32;34895;-90
2021/08/28 08:10:21;;;;;;;3.05;1.40;;;;;;;20.73;50.04;99801.50;4351874;32;32211;-91
2021/08/28 08:12:53;;;;;;;1.73;0.95;;;;;;;20.80;47.91;99806.47;4351389;32;35106;-96
2021/08/28 08:15:38;;;;;;;4.40;1.20;;;;;;;20.79;49.45;99799.50;4396369;32;34644;-93
2021/08/28 08:18:12;;;;;;;7.53;1.60;;;;;;;20.89;48.75;99802.63;4395454;32;33691;-92
2021/08/28 08:20:42;;;;;;;3.33;1.10;;;;;;;20.91;48.66;99804.28;4383462;32;33695;-91
2021/08/28 08:23:14;;;;;;;2.45;1.23;;;;;;;20.87;47.09;99802.66;4371401;32;33268;-93
2021/08/28 08:25:46;;;;;;;1.55;0.90;;;;;;;20.92;47.23;99797.19;4384045;32;33889;-90
2021/08/28 08:28:16;;;;;;;1.67;0.90;;;;;;;20.60;48.18;99784.47;4370673;32;33520;-93
2021/08/28 08:30:50;;;;;;;3.33;1.30;;;;;;;20.83;47.76;99789.63;4395939;32;33562;-92
2021/08/28 08:33:18;;;;;;;1.90;1.20;;;;;;;20.71;47.66;99791.00;4383068;32;34804;-91
2021/08/28 08:35:50;;;;;;;4.15;2.00;;;;;;;20.94;47.78;99796.19;4395647;32;34820;-93
2021/08/28 08:38:23;;;;;;;1.70;1.20;;;;;;;21.00;48.31;99797.72;4395351;32;33395;-93
2021/08/28 08:40:51;;;;;;;1.98;0.90;;;;;;;21.21;47.85;99801.25;4395723;32;33016;-92
2021/08/28 08:43:43;;;;;;;2.12;1.20;;;;;;;21.25;46.89;99797.56;4385232;32;33911;-93
2021/08/28 08:46:13;;;;;;;1.85;1.30;;;;;;;21.49;46.95;99796.47;4370718;32;34238;-93
2021/08/28 08:48:58;;;;;;;1.37;1.02;;;;;;;21.42;46.27;99795.87;4386628;32;34267;-92
2021/08/28 08:51:26;;;;;;;1.55;0.90;;;;;;;21.57;46.50;99795.22;4395392;32;33423;-88
2021/08/28 08:53:55;;;;;;;1.73;1.00;;;;;;;21.59;46.14;99793.34;4394994;32;33482;-92
2021/08/28 08:56:23;;;;;;;3.03;1.00;;;;;;;21.74;44.79;99791.81;4395225;32;35459;-93
2021/08/28 08:58:52;;;;;;;2.30;0.80;;;;;;;21.66;45.16;99788.63;4382890;32;34040;-94
2021/08/28 09:01:21;;;;;;;2.15;1.12;;;;;;;21.62;45.07;99792.38;4382855;32;33798;-93
2021/08/28 09:03:59;;;;;;;2.30;1.00;;;;;;;21.52;45.75;99791.03;4394853;32;33826;-93
2021/08/28 09:06:49;;;;;;;3.35;1.05;;;;;;;21.66;46.11;99793.94;4384870;32;34822;-94
2021/08/28 09:09:22;;;;;;;3.47;1.20;;;;;;;21.89;45.80;99785.84;4383444;32;33351;-94
2021/08/28 09:11:58;;;;;;;2.35;1.00;;;;;;;21.89;46.05;99779.69;4389548;32;32914;-94
2021/08/28 09:14:30;;;;;;;2.37;1.20;;;;;;;21.93;45.97;99787.41;4385079;32;34089;-92
2021/08/28 09:17:13;;;;;;;2.33;1.17;;;;;;;21.79;45.47;99789.81;4384550;32;34626;-92
2021/08/28 09:19:42;;;;;;;2.67;1.12;;;;;;;21.99;45.00;99783.59;4384516;32;33692;-93
2021/08/28 09:22:25;;;;;;;3.95;1.02;;;;;;;22.11;45.19;99783.91;4384440;32;33603;-90
2021/08/28 09:24:57;;;;;;;1.90;0.80;;;;;;;22.19;43.73;99789.69;4396721;32;33707;-92
2021/08/28 09:27:45;;;;;;;2.08;1.10;;;;;;;22.21;44.14;99793.13;4386027;32;34051;-93
2021/08/28 09:30:14;;;;;;;1.87;0.80;;;;;;;22.25;43.05;99792.03;4384478;32;33769;-92
2021/08/28 09:32:51;;;;;;;1.87;1.10;;;;;;;22.16;42.96;99789.84;4396606;32;33109;-92
2021/08/28 09:35:21;;;;;;;2.25;1.05;;;;;;;22.24;43.68;99787.69;4384142;32;34029;-89
2021/08/28 09:38:01;;;;;;;2.53;1.00;;;;;;;22.24;44.64;99786.81;4396159;32;34347;-87
2021/08/28 09:40:34;;;;;;;3.20;1.37;;;;;;;22.36;43.05;99782.72;4384016;32;34525;-92
2021/08/28 09:43:14;;;;;;;2.85;1.00;;;;;;;22.33;43.91;99785.50;4396844;32;33409;-92
2021/08/28 09:45:43;;;;;;;1.33;0.93;;;;;;;22.33;43.49;99778.44;4396582;32;33202;-92
2021/08/28 09:48:12;;;;;;;2.40;0.80;;;;;;;22.45;41.80;99775.19;4384161;32;34257;-91
2021/08/28 09:50:46;;;;;;;2.03;0.80;;;;;;;22.59;42.88;99775.38;4383708;32;34515;-91
2021/08/28 09:53:21;;;;;;;1.20;0.82;;;;;;;22.75;41.77;99772.84;4384150;32;33780;-91
2021/08/28 09:55:58;;;;;;;2.45;0.90;;;;;;;22.58;42.03;99780.75;4396337;32;34048;-90
2021/08/28 09:58:27;;;;;;;3.60;1.12;;;;;;;22.76;42.25;99778.06;4396457;32;34608;-93
2021/08/28 10:00:59;;;;;;;1.65;1.00;;;;;;;22.96;41.55;99771.78;4384424;32;33460;-91
2021/08/28 10:03:29;;;;;;;3.10;1.00;;;;;;;22.99;40.84;99771.59;4396639;32;33584;-92
2021/08/28 10:05:57;;;;;;;1.52;0.90;;;;;;;23.20;40.33;99772.31;4385528;32;33114;-95
2021/08/28 10:08:27;;;;;;;2.72;0.70;;;;;;;23.45;39.39;99776.28;4384375;32;34149;-94
2021/08/28 10:10:56;;;;;;;2.03;0.98;;;;;;;23.60;39.36;99768.44;4396679;32;34830;-94
2021/08/28 10:13:32;;;;;;;4.55;1.35;;;;;;;23.74;39.53;99755.25;4396926;32;34284;-95
2021/08/28 10:16:01;;;;;;;1.77;1.00;;;;;;;23.88;38.52;99752.72;4372630;32;33735;-93
2021/08/28 10:18:33;;;;;;;1.67;0.90;;;;;;;24.00;38.71;99752.03;4389116;32;35245;-93
2021/08/28 10:21:08;;;;;;;4.57;1.33;;;;;;;23.94;38.02;99753.22;4413470;32;34434;-95
2021/08/28 10:23:52;;;;;;;2.62;0.82;;;;;;;23.98;39.38;99743.28;4351416;32;33173;-94
2021/08/28 10:26:21;;;;;;;2.58;1.27;;;;;;;24.35;37.45;99742.09;4363846;32;33416;-93
2021/08/28 10:28:49;;;;;;;2.12;1.08;;;;;;;24.28;38.92;99735.41;4375988;32;34622;-92
2021/08/28 10:31:17;;;;;;;1.73;0.85;;;;;;;24.56;38.46;99740.84;4350936;32;34463;-92
2021/08/28 10:33:46;;;;;;;1.52;0.80;;;;;;;24.64;37.28;99742.13;4388038;32;33054;-93
2021/08/28 10:36:14;;;;;;;4.18;1.02;;;;;;;24.56;37.41;99736.41;4375514;32;34671;-92
2021/08/28 10:38:42;;;;;;;1.52;0.68;;;;;;;24.43;37.85;99724.78;4375905;32;35486;-95
2021/08/28 10:41:27;;;;;;;3.45;1.05;;;;;;;24.42;37.40;99741.66;4389067;32;34360;-92
2021/08/28 10:43:55;;;;;;;2.30;1.20;;;;;;;24.41;37.72;99739.09;4353727;32;33082;-93
2021/08/28 10:46:28;;;;;;;1.85;0.77;;;;;;;24.17;36.43;99731.59;4378112;32;34156;-93
2021/08/28 10:48:59;;;;;;;1.77;0.80;;;;;;;24.11;37.70;99734.56;4366137;32;35123;-92
2021/08/28 10:51:34;;;;;;;2.90;0.82;;;;;;;23.93;38.29;99740.03;4378277;32;33446;-94
2021/08/28 10:54:09;;;;;;;5.90;0.93;;;;;;;23.78;37.89;99732.91;4365325;32;34502;-93
2021/08/28 10:56:42;;;;;;;2.72;0.82;;;;;;;23.88;37.54;99737.62;4353898;32;33198;-93
2021/08/28 10:59:22;;;;;;;2.00;0.93;;;;;;;24.06;37.26;99733.97;4377912;32;33889;-93
2021/08/28 11:01:52;;;;;;;1.37;0.90;;;;;;;24.29;37.90;99732.69;4365752;32;33395;-92
2021/08/28 11:04:47;;;;;;;2.08;0.80;;;;;;;24.29;36.34;99724.72;4366157;32;33598;-92
2021/08/28 11:07:31;;;;;;;4.85;1.10;;;;;;;24.13;37.27;99721.19;4366014;32;33416;-93
2021/08/28 11:10:24;;;;;;;1.20;0.68;;;;;;;24.11;37.29;99726.59;4366054;32;34030;-93
2021/08/28 11:12:52;;;;;;;1.17;0.73;;;;;;;24.23;36.16;99715.28;4366050;32;33465;-93
2021/08/28 11:15:30;;;;;;;2.92;0.85;;;;;;;24.12;36.49;99711.53;4390589;32;32760;-95
2021/08/28 11:18:01;;;;;;;1.48;0.80;;;;;;;24.37;36.70;99709.16;4390945;32;33178;-96
2021/08/28 11:21:05;;;;;;;1.98;0.77;;;;;;;24.55;36.95;99702.78;4369131;32;33789;-95
2021/08/28 11:23:39;;;;;;;1.20;0.70;;;;;;;24.66;35.53;99700.34;4365904;32;34025;-93
2021/08/28 11:26:12;;;;;;;1.73;0.90;;;;;;;24.80;36.74;99699.56;4354763;32;32903;-94
2021/08/28 11:28:56;;;;;;;1.75;1.27;;;;;;;25.06;34.66;99709.47;4367714;32;33942;-92
2021/08/28 11:31:43;;;;;;;2.03;0.98;;;;;;;25.02;34.19;99704.44;4341068;32;33765;-94
2021/08/28 11:34:28;;;;;;;1.25;0.80;;;;;;;25.08;33.94;99712.91;4353420;32;34473;-92
2021/08/28 11:37:25;;;;;;;1.62;1.12;;;;;;;25.09;34.55;99708.44;4378273;32;34327;-93
2021/08/28 11:40:22;;;;;;;3.40;0.90;;;;;;;24.99;35.16;99702.81;4371063;32;32968;-91
2021/08/28 11:42:51;;;;;;;2.87;1.20;;;;;;;25.03;35.75;99701.69;4393002;32;33754;-90
2021/08/28 11:45:20;;;;;;;1.23;0.80;;;;;;;25.10;35.76;99699.53;4355884;32;35057;-93
2021/08/28 11:47:54;;;;;;;2.62;0.85;;;;;;;25.05;34.92;99704.25;4380384;32;33570;-92
2021/08/28 11:50:33;;;;;;;3.97;1.25;;;;;;;24.92;35.29;99701.47;4380966;32;33736;-92
2021/08/28 11:53:28;;;;;;;2.58;1.05;;;;;;;24.81;36.29;99704.81;4370501;32;34793;-92
2021/08/28 11:56:07;;;;;;;1.20;0.88;;;;;;;24.80;36.56;99702.22;4380826;32;35088;-93